JAL331 RJFK-RJFU
Flight info
| Callsign | JAL331 |
|---|---|
| Flight time | 0h 32m |
| Altitude | 12000 |
| Route | SASIK KAZSA OLE |
| Aircraft | B738/M-SDE2E3FGHIRWXY/LB1 |
Departure
| Time | 2026-04-26 18:32 |
|---|---|
| Airport | Kagoshima Airport (RJFK) |
Arrival
| Time | 2026-04-26 19:05 |
|---|---|
| Airport | Nagasaki Airport (RJFU) |
| Time | Latitude | Longitude | Altitude | Speed | Heading |
|---|---|---|---|---|---|
| 2026-04-26 17:54 | 31.80207 | 130.71605 | 902 ft | 0 kts | 241° |
| 2026-04-26 18:24 | 31.80212 | 130.71615 | 904 ft | 4 kts | 241° |
| 2026-04-26 18:24 | 31.80225 | 130.71644 | 901 ft | 4 kts | 242° |
| 2026-04-26 18:24 | 31.80238 | 130.71672 | 905 ft | 4 kts | 242° |
| 2026-04-26 18:24 | 31.80251 | 130.71699 | 903 ft | 4 kts | 240° |
| 2026-04-26 18:25 | 31.80265 | 130.71726 | 902 ft | 4 kts | 231° |
| 2026-04-26 18:25 | 31.80283 | 130.71745 | 902 ft | 4 kts | 186° |
| 2026-04-26 18:25 | 31.80285 | 130.71750 | 902 ft | 4 kts | 149° |
| 2026-04-26 18:25 | 31.80262 | 130.71766 | 905 ft | 4 kts | 149° |
| 2026-04-26 18:26 | 31.80238 | 130.71782 | 902 ft | 4 kts | 150° |
| 2026-04-26 18:26 | 31.80215 | 130.71797 | 902 ft | 4 kts | 150° |
| 2026-04-26 18:26 | 31.80194 | 130.71811 | 900 ft | 1 kts | 151° |
| 2026-04-26 18:28 | 31.80193 | 130.71812 | 900 ft | 0 kts | 151° |
| 2026-04-26 18:28 | 31.80186 | 130.71816 | 902 ft | 4 kts | 150° |
| 2026-04-26 18:28 | 31.80132 | 130.71852 | 899 ft | 14 kts | 150° |
| 2026-04-26 18:29 | 31.80028 | 130.71922 | 897 ft | 20 kts | 149° |
| 2026-04-26 18:29 | 31.79906 | 130.72006 | 894 ft | 20 kts | 150° |
| 2026-04-26 18:29 | 31.79787 | 130.72087 | 891 ft | 19 kts | 150° |
| 2026-04-26 18:29 | 31.79672 | 130.72164 | 889 ft | 19 kts | 149° |
| 2026-04-26 18:30 | 31.79562 | 130.72241 | 887 ft | 18 kts | 149° |
| 2026-04-26 18:30 | 31.79455 | 130.72315 | 885 ft | 17 kts | 151° |
| 2026-04-26 18:30 | 31.79350 | 130.72381 | 883 ft | 17 kts | 149° |
| 2026-04-26 18:30 | 31.79253 | 130.72449 | 881 ft | 16 kts | 149° |
| 2026-04-26 18:31 | 31.79158 | 130.72517 | 880 ft | 16 kts | 148° |
| 2026-04-26 18:31 | 31.79132 | 130.72625 | 878 ft | 15 kts | 66° |
| 2026-04-26 18:31 | 31.79200 | 130.72698 | 878 ft | 13 kts | 353° |
| 2026-04-26 18:31 | 31.79290 | 130.72646 | 881 ft | 23 kts | 329° |
| 2026-04-26 18:32 | 31.79617 | 130.72426 | 887 ft | 87 kts | 330° |
| 2026-04-26 18:32 | 31.80321 | 130.71950 | 891 ft | 142 kts | 330° |
| 2026-04-26 18:32 | 31.81288 | 130.71328 | 1160 ft | 168 kts | 333° |
| 2026-04-26 18:32 | 31.82349 | 130.70677 | 1711 ft | 176 kts | 336° |
| 2026-04-26 18:33 | 31.83499 | 130.70033 | 2296 ft | 192 kts | 340° |
| 2026-04-26 18:33 | 31.84848 | 130.69535 | 2882 ft | 214 kts | 348° |
| 2026-04-26 18:33 | 31.86319 | 130.69077 | 3520 ft | 226 kts | 347° |
| 2026-04-26 18:33 | 31.87929 | 130.68567 | 3838 ft | 250 kts | 347° |
| 2026-04-26 18:34 | 31.89646 | 130.68026 | 4451 ft | 259 kts | 346° |
| 2026-04-26 18:34 | 31.91426 | 130.67469 | 5083 ft | 269 kts | 346° |
| 2026-04-26 18:34 | 31.93301 | 130.66886 | 5587 ft | 286 kts | 345° |
| 2026-04-26 18:34 | 31.95261 | 130.66278 | 6442 ft | 293 kts | 344° |
| 2026-04-26 18:35 | 31.97194 | 130.65580 | 7459 ft | 293 kts | 340° |
| 2026-04-26 18:35 | 31.99124 | 130.64777 | 8478 ft | 295 kts | 339° |
| 2026-04-26 18:35 | 32.01067 | 130.63958 | 9504 ft | 298 kts | 339° |
| 2026-04-26 18:35 | 32.03044 | 130.63136 | 10434 ft | 305 kts | 338° |
| 2026-04-26 18:36 | 32.05082 | 130.62299 | 11276 ft | 314 kts | 338° |
| 2026-04-26 18:36 | 32.07198 | 130.61430 | 11808 ft | 325 kts | 338° |
| 2026-04-26 18:36 | 32.09348 | 130.60552 | 12009 ft | 329 kts | 338° |
| 2026-04-26 18:36 | 32.11514 | 130.59669 | 12035 ft | 329 kts | 338° |
| 2026-04-26 18:37 | 32.13653 | 130.58796 | 12045 ft | 330 kts | 338° |
| 2026-04-26 18:37 | 32.15819 | 130.57909 | 12031 ft | 330 kts | 339° |
| 2026-04-26 18:37 | 32.18003 | 130.57022 | 12190 ft | 332 kts | 340° |
| 2026-04-26 18:37 | 32.20164 | 130.56138 | 12159 ft | 324 kts | 340° |
| 2026-04-26 18:38 | 32.22273 | 130.55272 | 12126 ft | 316 kts | 340° |
| 2026-04-26 18:38 | 32.24324 | 130.54430 | 12116 ft | 308 kts | 340° |
| 2026-04-26 18:38 | 32.26358 | 130.53596 | 12127 ft | 311 kts | 340° |
| 2026-04-26 18:38 | 32.28411 | 130.52752 | 12139 ft | 315 kts | 339° |
| 2026-04-26 18:39 | 32.30385 | 130.51640 | 12127 ft | 314 kts | 328° |
| 2026-04-26 18:39 | 32.32108 | 130.50118 | 12130 ft | 313 kts | 320° |
| 2026-04-26 18:39 | 32.33772 | 130.48461 | 12132 ft | 312 kts | 319° |
| 2026-04-26 18:39 | 32.35423 | 130.46792 | 12125 ft | 312 kts | 319° |
| 2026-04-26 18:40 | 32.37077 | 130.45121 | 12123 ft | 312 kts | 319° |
| 2026-04-26 18:40 | 32.38731 | 130.43457 | 12125 ft | 312 kts | 319° |
| 2026-04-26 18:40 | 32.40388 | 130.41796 | 12126 ft | 312 kts | 319° |
| 2026-04-26 18:40 | 32.42045 | 130.40139 | 12127 ft | 312 kts | 319° |
| 2026-04-26 18:41 | 32.43707 | 130.38480 | 12123 ft | 312 kts | 319° |
| 2026-04-26 18:41 | 32.45350 | 130.36840 | 12125 ft | 313 kts | 320° |
| 2026-04-26 18:41 | 32.47016 | 130.35178 | 12134 ft | 313 kts | 320° |
| 2026-04-26 18:41 | 32.48685 | 130.33512 | 12122 ft | 314 kts | 320° |
| 2026-04-26 18:42 | 32.50358 | 130.31842 | 12133 ft | 314 kts | 319° |
| 2026-04-26 18:42 | 32.52013 | 130.30189 | 12021 ft | 309 kts | 319° |
| 2026-04-26 18:42 | 32.53665 | 130.28538 | 11740 ft | 309 kts | 319° |
| 2026-04-26 18:42 | 32.55280 | 130.26924 | 11449 ft | 305 kts | 319° |
| 2026-04-26 18:43 | 32.56895 | 130.25310 | 11117 ft | 302 kts | 319° |
| 2026-04-26 18:43 | 32.58501 | 130.23702 | 10797 ft | 300 kts | 319° |
| 2026-04-26 18:43 | 32.60092 | 130.22118 | 10459 ft | 298 kts | 320° |
| 2026-04-26 18:43 | 32.61674 | 130.20548 | 10205 ft | 293 kts | 320° |
| 2026-04-26 18:44 | 32.63214 | 130.19021 | 10087 ft | 284 kts | 320° |
| 2026-04-26 18:44 | 32.64714 | 130.17532 | 9925 ft | 277 kts | 320° |
| 2026-04-26 18:44 | 32.66193 | 130.16063 | 9623 ft | 276 kts | 320° |
| 2026-04-26 18:44 | 32.67661 | 130.14606 | 9381 ft | 274 kts | 320° |
| 2026-04-26 18:45 | 32.69125 | 130.13304 | 9273 ft | 258 kts | 324° |
| 2026-04-26 18:45 | 32.70576 | 130.12097 | 8828 ft | 257 kts | 324° |
| 2026-04-26 18:45 | 32.72095 | 130.10834 | 7951 ft | 273 kts | 324° |
| 2026-04-26 18:45 | 32.73659 | 130.09520 | 7326 ft | 276 kts | 324° |
| 2026-04-26 18:46 | 32.75226 | 130.08191 | 6814 ft | 274 kts | 324° |
| 2026-04-26 18:46 | 32.76773 | 130.06874 | 6325 ft | 272 kts | 324° |
| 2026-04-26 18:46 | 32.78281 | 130.05586 | 5831 ft | 270 kts | 323° |
| 2026-04-26 18:46 | 32.79752 | 130.04190 | 5317 ft | 268 kts | 319° |
| 2026-04-26 18:47 | 32.81135 | 130.02707 | 5041 ft | 266 kts | 317° |
| 2026-04-26 18:47 | 32.82520 | 130.01202 | 5014 ft | 271 kts | 317° |
| 2026-04-26 18:47 | 32.83917 | 129.99701 | 5001 ft | 269 kts | 317° |
| 2026-04-26 18:47 | 32.85277 | 129.98241 | 4995 ft | 266 kts | 317° |
| 2026-04-26 18:48 | 32.86658 | 129.96759 | 5002 ft | 267 kts | 317° |
| 2026-04-26 18:48 | 32.88043 | 129.95272 | 5001 ft | 268 kts | 317° |
| 2026-04-26 18:48 | 32.89431 | 129.93782 | 5000 ft | 268 kts | 317° |
| 2026-04-26 18:48 | 32.90822 | 129.92290 | 5004 ft | 268 kts | 317° |
| 2026-04-26 18:49 | 32.92188 | 129.90824 | 5005 ft | 268 kts | 317° |
| 2026-04-26 18:49 | 32.93568 | 129.89343 | 4986 ft | 266 kts | 317° |
| 2026-04-26 18:49 | 32.94947 | 129.87864 | 4999 ft | 267 kts | 317° |
| 2026-04-26 18:49 | 32.96337 | 129.86372 | 5016 ft | 277 kts | 317° |
| 2026-04-26 18:50 | 32.97764 | 129.84841 | 4998 ft | 271 kts | 317° |
| 2026-04-26 18:50 | 32.99157 | 129.83358 | 4990 ft | 265 kts | 318° |
| 2026-04-26 18:50 | 33.00543 | 129.81893 | 5000 ft | 267 kts | 318° |
| 2026-04-26 18:50 | 33.01841 | 129.80355 | 4989 ft | 268 kts | 304° |
| 2026-04-26 18:51 | 33.02516 | 129.78310 | 5009 ft | 270 kts | 277° |
| 2026-04-26 18:51 | 33.02320 | 129.76085 | 5002 ft | 271 kts | 249° |
| 2026-04-26 18:51 | 33.01278 | 129.74257 | 4996 ft | 267 kts | 220° |
| 2026-04-26 18:51 | 32.99647 | 129.73253 | 5005 ft | 267 kts | 192° |
| 2026-04-26 18:52 | 32.97793 | 129.73270 | 4996 ft | 270 kts | 165° |
| 2026-04-26 18:52 | 32.96123 | 129.74271 | 5012 ft | 271 kts | 145° |
| 2026-04-26 18:52 | 32.94625 | 129.75600 | 5001 ft | 273 kts | 143° |
| 2026-04-26 18:52 | 32.93104 | 129.77001 | 4996 ft | 273 kts | 142° |
| 2026-04-26 18:53 | 32.91622 | 129.78374 | 4999 ft | 273 kts | 142° |
| 2026-04-26 18:53 | 32.90125 | 129.79767 | 5003 ft | 272 kts | 142° |
| 2026-04-26 18:53 | 32.88631 | 129.81162 | 4998 ft | 272 kts | 142° |
| 2026-04-26 18:53 | 32.87194 | 129.82623 | 4996 ft | 271 kts | 138° |
| 2026-04-26 18:54 | 32.85804 | 129.84145 | 4846 ft | 274 kts | 137° |
| 2026-04-26 18:54 | 32.84407 | 129.85688 | 4590 ft | 271 kts | 137° |
| 2026-04-26 18:54 | 32.83055 | 129.87186 | 4339 ft | 268 kts | 137° |
| 2026-04-26 18:54 | 32.81697 | 129.88693 | 4094 ft | 265 kts | 137° |
| 2026-04-26 18:55 | 32.80356 | 129.90184 | 3831 ft | 262 kts | 137° |
| 2026-04-26 18:55 | 32.79028 | 129.91657 | 3585 ft | 259 kts | 137° |
| 2026-04-26 18:55 | 32.77730 | 129.93097 | 3515 ft | 249 kts | 137° |
| 2026-04-26 18:55 | 32.76491 | 129.94471 | 3508 ft | 238 kts | 137° |
| 2026-04-26 18:56 | 32.75305 | 129.95789 | 3484 ft | 234 kts | 137° |
| 2026-04-26 18:56 | 32.74126 | 129.97099 | 3492 ft | 230 kts | 137° |
| 2026-04-26 18:56 | 32.72952 | 129.98402 | 3501 ft | 230 kts | 137° |
| 2026-04-26 18:56 | 32.71785 | 129.99699 | 3506 ft | 229 kts | 137° |
| 2026-04-26 18:57 | 32.70632 | 130.00979 | 3501 ft | 229 kts | 137° |
| 2026-04-26 18:57 | 32.70236 | 130.01419 | 3505 ft | 229 kts | 137° |
| 2026-04-26 18:57 | 32.68295 | 130.03574 | 3381 ft | 234 kts | 136° |
| 2026-04-26 18:57 | 32.67344 | 130.05153 | 3157 ft | 237 kts | 109° |
| 2026-04-26 18:58 | 32.67227 | 130.07054 | 2982 ft | 229 kts | 76° |
| 2026-04-26 18:58 | 32.67965 | 130.08654 | 2791 ft | 217 kts | 43° |
| 2026-04-26 18:58 | 32.69218 | 130.09542 | 2658 ft | 203 kts | 24° |
| 2026-04-26 18:58 | 32.70462 | 130.10183 | 2511 ft | 192 kts | 22° |
| 2026-04-26 18:59 | 32.71658 | 130.10788 | 2404 ft | 180 kts | 22° |
| 2026-04-26 18:59 | 32.72862 | 130.11099 | 2383 ft | 179 kts | 349° |
| 2026-04-26 18:59 | 32.73903 | 130.10381 | 2421 ft | 175 kts | 317° |
| 2026-04-26 18:59 | 32.74829 | 130.09425 | 2407 ft | 177 kts | 319° |
| 2026-04-26 19:00 | 32.75755 | 130.08459 | 2397 ft | 176 kts | 318° |
| 2026-04-26 19:00 | 32.76653 | 130.07504 | 2390 ft | 175 kts | 317° |
| 2026-04-26 19:00 | 32.77554 | 130.06539 | 2395 ft | 173 kts | 317° |
| 2026-04-26 19:00 | 32.78450 | 130.05576 | 2402 ft | 173 kts | 317° |
| 2026-04-26 19:01 | 32.79344 | 130.04615 | 2397 ft | 172 kts | 317° |
| 2026-04-26 19:01 | 32.79934 | 130.03978 | 2403 ft | 173 kts | 317° |
| 2026-04-26 19:01 | 32.81132 | 130.02695 | 2406 ft | 174 kts | 317° |
| 2026-04-26 19:01 | 32.82033 | 130.01728 | 2306 ft | 175 kts | 317° |
| 2026-04-26 19:02 | 32.82950 | 130.00741 | 2081 ft | 180 kts | 317° |
| 2026-04-26 19:02 | 32.83563 | 130.00082 | 1906 ft | 178 kts | 317° |
| 2026-04-26 19:02 | 32.84469 | 129.99111 | 1683 ft | 172 kts | 317° |
| 2026-04-26 19:02 | 32.85055 | 129.98480 | 1527 ft | 172 kts | 317° |
| 2026-04-26 19:03 | 32.86179 | 129.97273 | 1255 ft | 150 kts | 317° |
| 2026-04-26 19:03 | 32.86903 | 129.96496 | 1050 ft | 136 kts | 317° |
| 2026-04-26 19:03 | 32.87595 | 129.95753 | 877 ft | 134 kts | 317° |
| 2026-04-26 19:03 | 32.88293 | 129.95004 | 704 ft | 135 kts | 317° |
| 2026-04-26 19:04 | 32.88992 | 129.94253 | 539 ft | 134 kts | 317° |
| 2026-04-26 19:04 | 32.89684 | 129.93520 | 390 ft | 134 kts | 317° |
| 2026-04-26 19:04 | 32.90375 | 129.92742 | 180 ft | 137 kts | 318° |
| 2026-04-26 19:04 | 32.91080 | 129.91997 | 31 ft | 132 kts | 319° |
| 2026-04-26 19:05 | 32.91935 | 129.91114 | 15 ft | 20 kts | 349° |
| 2026-04-26 19:05 | 32.92032 | 129.91212 | 17 ft | 20 kts | 86° |
| 2026-04-26 19:05 | 32.91959 | 129.91341 | 18 ft | 19 kts | 138° |
| 2026-04-26 19:06 | 32.91861 | 129.91446 | 16 ft | 19 kts | 138° |
| 2026-04-26 19:06 | 32.91786 | 129.91526 | 17 ft | 13 kts | 137° |
| 2026-04-26 19:06 | 32.91721 | 129.91596 | 17 ft | 13 kts | 138° |
| 2026-04-26 19:06 | 32.91657 | 129.91665 | 16 ft | 12 kts | 138° |
| 2026-04-26 19:07 | 32.91594 | 129.91732 | 18 ft | 12 kts | 138° |
| 2026-04-26 19:07 | 32.91532 | 129.91797 | 16 ft | 12 kts | 138° |
| 2026-04-26 19:07 | 32.91473 | 129.91861 | 16 ft | 11 kts | 138° |
| 2026-04-26 19:07 | 32.91414 | 129.91922 | 16 ft | 11 kts | 138° |
| 2026-04-26 19:08 | 32.91391 | 129.91977 | 16 ft | 7 kts | 60° |
| 2026-04-26 19:08 | 32.91421 | 129.92022 | 17 ft | 7 kts | 43° |
| 2026-04-26 19:08 | 32.91454 | 129.92064 | 17 ft | 7 kts | 48° |
| 2026-04-26 19:08 | 32.91469 | 129.92083 | 17 ft | 0 kts | 48° |
| 2026-04-26 19:09 | 32.91469 | 129.92084 | 17 ft | 0 kts | 48° |
| 2026-04-26 19:09 | 32.91472 | 129.92088 | 17 ft | 1 kts | 48° |